createdAt,value
2017-09-06T00:00:51.557Z,3.93
2017-09-06T00:03:19.044Z,4.30
2017-09-06T00:05:46.544Z,3.63
2017-09-06T00:08:14.037Z,7.13
2017-09-06T00:10:41.539Z,3.80
2017-09-06T00:13:09.125Z,5.37
2017-09-06T00:15:36.608Z,3.37
2017-09-06T00:18:04.213Z,4.50
2017-09-06T00:20:33.364Z,3.00
2017-09-06T00:23:00.869Z,5.57
2017-09-06T00:25:28.489Z,4.53
2017-09-06T00:27:55.993Z,2.93
2017-09-06T00:30:23.493Z,2.83
2017-09-06T00:32:51.014Z,2.47
2017-09-06T00:35:18.558Z,3.50
2017-09-06T00:37:46.066Z,3.40
2017-09-06T00:40:13.629Z,6.00
2017-09-06T00:42:41.140Z,3.37
2017-09-06T00:45:08.646Z,6.83
2017-09-06T00:47:36.272Z,4.37
2017-09-06T00:50:03.800Z,2.70
2017-09-06T00:52:31.298Z,2.80
2017-09-06T00:54:58.820Z,4.03
2017-09-06T00:57:26.322Z,4.33
2017-09-06T00:59:53.877Z,6.63
2017-09-06T01:02:21.428Z,2.43
2017-09-06T01:04:48.925Z,3.60
2017-09-06T01:07:16.422Z,3.60
2017-09-06T01:09:43.929Z,2.93
2017-09-06T01:12:11.516Z,2.03
2017-09-06T01:14:39.012Z,4.20
2017-09-06T01:17:06.496Z,5.83
2017-09-06T01:19:34.020Z,2.07
2017-09-06T01:22:01.511Z,2.40
2017-09-06T01:24:28.989Z,2.20
2017-09-06T01:26:56.556Z,3.33
2017-09-06T01:29:24.045Z,3.67
2017-09-06T01:31:51.638Z,2.27
2017-09-06T01:34:19.189Z,1.77
2017-09-06T01:36:46.700Z,2.10
2017-09-06T01:39:14.260Z,3.87
2017-09-06T01:41:41.789Z,3.30
2017-09-06T01:44:09.330Z,2.23
2017-09-06T01:46:36.828Z,1.60
2017-09-06T01:49:04.417Z,2.73
2017-09-06T01:51:31.955Z,2.17
2017-09-06T01:53:59.508Z,3.00
2017-09-06T01:56:27.002Z,2.10
2017-09-06T01:58:54.584Z,1.90
2017-09-06T02:01:22.072Z,1.80
2017-09-06T02:03:49.676Z,2.03
2017-09-06T02:06:17.169Z,1.93
2017-09-06T02:08:44.688Z,3.67
2017-09-06T02:11:12.238Z,1.50
2017-09-06T02:13:39.846Z,1.87
2017-09-06T02:16:07.417Z,4.30
2017-09-06T02:18:34.945Z,1.90
2017-09-06T02:21:02.488Z,4.23
2017-09-06T02:23:30.042Z,3.70
2017-09-06T02:25:57.530Z,2.23
2017-09-06T02:28:25.128Z,1.93
2017-09-06T02:30:52.628Z,3.00
2017-09-06T02:33:20.209Z,2.17
2017-09-06T02:35:47.712Z,3.57
2017-09-06T02:38:15.208Z,3.33
2017-09-06T02:40:42.726Z,1.93
2017-09-06T02:43:10.213Z,2.10
2017-09-06T02:45:37.764Z,3.70
2017-09-06T02:48:05.314Z,2.30
2017-09-06T02:50:32.853Z,4.20
2017-09-06T02:53:00.338Z,3.20
2017-09-06T02:55:27.836Z,2.53
2017-09-06T02:57:55.381Z,2.23
2017-09-06T03:00:22.881Z,2.43
2017-09-06T03:02:50.368Z,3.13
2017-09-06T03:05:17.918Z,2.30
2017-09-06T03:07:45.396Z,2.90
2017-09-06T03:10:12.909Z,8.90
2017-09-06T03:12:40.458Z,3.50
2017-09-06T03:15:07.988Z,2.43
2017-09-06T03:17:35.533Z,7.80
2017-09-06T03:20:03.021Z,3.27
2017-09-06T03:22:30.614Z,2.23
2017-09-06T03:24:58.100Z,3.40
2017-09-06T03:27:25.805Z,11.40
2017-09-06T03:29:53.357Z,2.07
2017-09-06T03:32:20.865Z,3.00
2017-09-06T03:34:48.437Z,2.40
2017-09-06T03:37:16.001Z,2.53
2017-09-06T03:39:43.491Z,9.23
2017-09-06T03:42:11.085Z,4.27
2017-09-06T03:44:38.628Z,4.17
2017-09-06T03:47:06.181Z,2.50
2017-09-06T03:49:33.673Z,4.40
2017-09-06T03:52:01.205Z,2.50
2017-09-06T03:54:28.694Z,4.37
2017-09-06T03:56:56.176Z,4.70
2017-09-06T03:59:23.782Z,3.40
2017-09-06T04:01:51.317Z,5.77
2017-09-06T04:04:18.872Z,3.60
2017-09-06T04:06:46.361Z,2.70
2017-09-06T04:09:13.975Z,3.60
2017-09-06T04:11:41.508Z,2.70
2017-09-06T04:14:09.010Z,7.40
2017-09-06T04:16:36.505Z,3.40
2017-09-06T04:19:04.039Z,3.57
2017-09-06T04:21:31.583Z,5.40
2017-09-06T04:23:59.125Z,3.43
2017-09-06T04:26:26.670Z,4.27
2017-09-06T04:28:54.220Z,2.57
2017-09-06T04:31:21.753Z,2.53
2017-09-06T04:33:49.300Z,2.63
2017-09-06T04:36:16.875Z,4.67
2017-09-06T04:38:44.425Z,5.23
2017-09-06T04:41:11.953Z,4.77
2017-09-06T04:43:39.489Z,5.23
2017-09-06T04:46:07.004Z,5.13
2017-09-06T04:48:34.484Z,5.03
2017-09-06T04:51:01.962Z,7.57
2017-09-06T04:53:29.563Z,4.23
2017-09-06T04:55:57.040Z,4.10
2017-09-06T04:58:24.553Z,8.07
2017-09-06T05:00:52.045Z,7.50
2017-09-06T05:03:19.641Z,7.20
2017-09-06T05:05:47.152Z,5.80
2017-09-06T05:08:14.725Z,6.07
2017-09-06T05:10:42.282Z,9.53
2017-09-06T05:13:09.822Z,7.17
2017-09-06T05:15:37.365Z,7.90
2017-09-06T05:18:04.877Z,10.00
2017-09-06T05:20:32.357Z,9.73
2017-09-06T05:22:59.893Z,8.80
2017-09-06T05:25:27.452Z,10.90
2017-09-06T05:27:54.989Z,8.77
2017-09-06T05:30:22.520Z,14.80
2017-09-06T05:32:50.064Z,12.73
2017-09-06T05:35:17.621Z,9.97
2017-09-06T05:37:45.158Z,12.67
2017-09-06T05:40:12.700Z,9.90
2017-09-06T05:42:40.249Z,11.10
2017-09-06T05:45:07.785Z,8.67
2017-09-06T05:47:35.332Z,11.73
2017-09-06T05:50:02.845Z,11.47
2017-09-06T05:52:30.421Z,12.00
2017-09-06T05:54:57.945Z,9.77
2017-09-06T05:57:25.429Z,9.43
2017-09-06T05:59:52.948Z,10.43
2017-09-06T06:02:20.462Z,9.70
2017-09-06T06:04:48.300Z,14.07
2017-09-06T06:07:15.952Z,10.70
2017-09-06T06:09:43.477Z,7.43
2017-09-06T06:12:11.001Z,10.50
2017-09-06T06:14:38.480Z,9.03
2017-09-06T06:17:06.040Z,8.10
2017-09-06T06:19:33.588Z,9.60
2017-09-06T06:22:01.149Z,9.77
2017-09-06T06:24:28.695Z,9.20
2017-09-06T06:26:56.437Z,9.60
2017-09-06T06:29:23.924Z,9.03
2017-09-06T06:31:51.664Z,10.50
2017-09-06T06:34:19.794Z,8.60
2017-09-06T06:36:49.640Z,9.03
2017-09-06T06:39:17.619Z,11.70
2017-09-06T06:41:46.649Z,8.37
2017-09-06T06:44:15.925Z,9.93
2017-09-06T06:46:44.023Z,12.23
2017-09-06T06:49:17.819Z,10.10
2017-09-06T06:51:47.013Z,8.90
2017-09-06T06:54:15.333Z,7.60
2017-09-06T06:56:43.324Z,8.50
2017-09-06T06:59:10.932Z,8.03
2017-09-06T07:01:38.650Z,5.43
2017-09-06T07:04:06.153Z,10.77
2017-09-06T07:06:33.632Z,7.33
2017-09-06T07:09:01.124Z,5.83
2017-09-06T07:11:28.645Z,4.07
2017-09-06T07:13:56.134Z,4.90
2017-09-06T07:16:23.642Z,3.97
2017-09-06T07:19:01.220Z,3.50
2017-09-06T07:21:28.855Z,2.73
2017-09-06T07:23:56.468Z,6.40
2017-09-06T07:26:23.974Z,3.57
2017-09-06T07:28:51.959Z,2.87
2017-09-06T07:31:19.469Z,4.67
2017-09-06T07:33:47.006Z,4.13
2017-09-06T07:36:14.565Z,4.47
2017-09-06T07:38:42.108Z,3.73
2017-09-06T07:41:09.613Z,7.93
2017-09-06T07:43:37.153Z,6.47
2017-09-06T07:46:04.665Z,3.77
2017-09-06T07:48:32.270Z,4.40
2017-09-06T07:50:59.764Z,4.13
2017-09-06T07:53:27.338Z,5.60
2017-09-06T07:55:54.865Z,6.67
2017-09-06T07:58:22.422Z,5.80
2017-09-06T08:00:49.953Z,8.00
2017-09-06T08:03:17.464Z,16.63
2017-09-06T08:05:44.960Z,11.50
2017-09-06T08:08:12.474Z,8.93
2017-09-06T08:10:40.025Z,18.20
2017-09-06T08:13:07.575Z,6.30
2017-09-06T08:15:35.125Z,7.93
2017-09-06T08:18:02.668Z,10.87
2017-09-06T08:20:30.220Z,8.43
2017-09-06T08:22:57.714Z,8.43
2017-09-06T08:25:25.305Z,7.40
2017-09-06T08:27:52.840Z,8.67
2017-09-06T08:30:20.337Z,8.30
2017-09-06T08:32:47.812Z,7.80
2017-09-06T08:35:15.381Z,8.50
2017-09-06T08:37:42.919Z,9.40
2017-09-06T08:40:10.417Z,7.90
2017-09-06T08:42:37.932Z,9.60
2017-09-06T08:45:05.437Z,9.70
2017-09-06T08:47:33.020Z,9.83
2017-09-06T08:50:00.549Z,15.00
2017-09-06T08:52:28.543Z,6.90
2017-09-06T08:54:56.065Z,11.97
2017-09-06T08:57:23.569Z,9.63
2017-09-06T08:59:51.151Z,11.03
2017-09-06T09:02:18.698Z,4.20
2017-09-06T09:04:46.241Z,8.60
2017-09-06T09:07:13.797Z,7.57
2017-09-06T09:09:41.282Z,6.60
2017-09-06T09:12:08.793Z,10.10
2017-09-06T09:14:36.272Z,6.13
2017-09-06T09:17:03.864Z,8.00
2017-09-06T09:19:31.364Z,7.60
2017-09-06T09:21:58.947Z,5.27
2017-09-06T09:24:26.485Z,8.67
2017-09-06T09:26:53.996Z,6.13
2017-09-06T09:29:21.568Z,6.93
2017-09-06T09:31:49.116Z,7.10
2017-09-06T09:34:16.678Z,6.73
2017-09-06T09:36:44.161Z,8.00
2017-09-06T09:39:11.749Z,5.93
2017-09-06T09:41:39.301Z,9.07
2017-09-06T09:44:06.868Z,6.17
2017-09-06T09:46:34.345Z,7.30
2017-09-06T09:49:01.871Z,7.00
2017-09-06T09:51:29.372Z,10.67
2017-09-06T09:53:56.886Z,6.47
2017-09-06T09:56:24.388Z,4.00
2017-09-06T09:58:51.888Z,10.30
2017-09-06T10:01:19.399Z,9.50
2017-09-06T10:03:47.033Z,10.27
2017-09-06T10:06:14.517Z,5.37
2017-09-06T10:08:41.996Z,8.30
2017-09-06T10:11:09.497Z,8.37
2017-09-06T10:13:37.036Z,6.83
2017-09-06T10:16:04.533Z,7.03
2017-09-06T10:18:32.069Z,9.00
2017-09-06T10:20:59.604Z,7.67
2017-09-06T10:23:27.109Z,6.30
2017-09-06T10:25:54.729Z,9.47
2017-09-06T10:28:22.272Z,7.00
2017-09-06T10:30:49.816Z,12.00
2017-09-06T10:33:17.326Z,11.07
2017-09-06T10:35:44.892Z,6.03
2017-09-06T10:38:12.397Z,7.73
2017-09-06T10:40:39.977Z,10.17
2017-09-06T10:43:07.481Z,8.17
2017-09-06T10:45:35.054Z,7.37
2017-09-06T10:48:02.573Z,9.20
2017-09-06T10:50:30.094Z,17.73
2017-09-06T10:52:57.664Z,10.07
2017-09-06T10:55:25.153Z,13.30
2017-09-06T10:57:52.657Z,7.47
2017-09-06T11:00:20.145Z,8.03
2017-09-06T11:02:47.733Z,6.87
2017-09-06T11:05:15.282Z,9.13
2017-09-06T11:07:42.949Z,12.23
2017-09-06T11:10:10.567Z,8.50
2017-09-06T11:12:38.113Z,15.83
2017-09-06T11:15:05.616Z,14.10
2017-09-06T11:17:33.121Z,6.40
2017-09-06T11:20:00.637Z,9.17
2017-09-06T11:22:28.186Z,6.43
2017-09-06T11:24:55.686Z,9.97
2017-09-06T11:27:23.282Z,10.33
2017-09-06T11:29:50.817Z,8.80
2017-09-06T11:32:18.369Z,6.93
2017-09-06T11:34:45.916Z,9.70
2017-09-06T11:37:13.413Z,11.83
2017-09-06T11:39:40.922Z,6.73
2017-09-06T11:42:08.413Z,5.30
2017-09-06T11:44:35.944Z,19.20
2017-09-06T11:47:03.454Z,10.67
2017-09-06T11:49:31.076Z,9.77
2017-09-06T11:51:58.692Z,9.23
2017-09-06T11:54:26.186Z,13.60
2017-09-06T11:56:53.774Z,9.10
2017-09-06T11:59:21.313Z,8.30
2017-09-06T12:01:48.888Z,10.50
2017-09-06T12:04:16.399Z,13.70
2017-09-06T12:06:44.049Z,10.13
2017-09-06T12:09:11.528Z,7.47
2017-09-06T12:11:39.033Z,5.50
2017-09-06T12:14:06.528Z,8.57
2017-09-06T12:16:34.121Z,7.93
2017-09-06T12:19:01.651Z,11.83
2017-09-06T12:21:29.192Z,13.10
2017-09-06T12:23:56.756Z,7.07
2017-09-06T12:26:24.272Z,11.07
2017-09-06T12:28:51.837Z,7.77
2017-09-06T12:31:19.333Z,10.57
2017-09-06T12:33:46.844Z,8.20
2017-09-06T12:36:14.378Z,13.70
2017-09-06T12:38:41.917Z,11.43
2017-09-06T12:41:09.397Z,7.80
2017-09-06T12:43:36.914Z,11.10
2017-09-06T12:46:04.410Z,13.30
2017-09-06T12:48:31.960Z,10.13
2017-09-06T12:50:59.465Z,11.70
2017-09-06T12:53:27.029Z,16.03
2017-09-06T12:55:54.565Z,8.80
2017-09-06T12:58:22.064Z,13.67
2017-09-06T13:00:49.575Z,9.60
2017-09-06T13:03:17.200Z,11.23
2017-09-06T13:05:44.690Z,9.40
2017-09-06T13:08:12.182Z,9.77
2017-09-06T13:10:39.731Z,10.77
2017-09-06T13:13:07.269Z,12.00
2017-09-06T13:15:34.772Z,10.17
2017-09-06T13:18:02.269Z,11.80
2017-09-06T13:20:29.807Z,12.90
2017-09-06T13:22:57.343Z,9.47
2017-09-06T13:25:24.893Z,15.53
2017-09-06T13:27:52.433Z,11.40
2017-09-06T13:30:19.941Z,11.33
2017-09-06T13:32:47.520Z,12.63
2017-09-06T13:35:15.046Z,12.53
2017-09-06T13:37:42.602Z,8.80
2017-09-06T13:40:10.084Z,12.50
2017-09-06T13:42:37.617Z,12.37
2017-09-06T13:45:05.097Z,9.90
2017-09-06T13:47:32.617Z,6.67
2017-09-06T13:50:00.140Z,8.93
2017-09-06T13:52:27.657Z,10.20
2017-09-06T13:54:55.316Z,8.73
2017-09-06T13:57:22.821Z,9.63
2017-09-06T13:59:50.396Z,8.97
2017-09-06T14:02:17.956Z,10.17
2017-09-06T14:04:45.486Z,11.40
2017-09-06T14:07:13.001Z,17.10
2017-09-06T14:09:40.499Z,11.57
2017-09-06T14:12:08.018Z,9.40
2017-09-06T14:14:35.510Z,11.50
2017-09-06T14:17:03.006Z,11.33
2017-09-06T14:19:30.566Z,15.43
2017-09-06T14:21:58.101Z,15.33
2017-09-06T14:24:25.641Z,17.87
2017-09-06T14:26:53.125Z,13.30
2017-09-06T14:29:20.641Z,17.13
2017-09-06T14:31:48.129Z,19.27
2017-09-06T14:34:15.720Z,11.73
2017-09-06T14:36:43.257Z,9.37
2017-09-06T14:39:10.773Z,9.17
2017-09-06T14:41:38.293Z,9.53
2017-09-06T14:44:05.886Z,11.57
2017-09-06T14:46:33.388Z,15.40
2017-09-06T14:49:00.883Z,15.60
2017-09-06T14:51:28.410Z,17.73
2017-09-06T14:53:55.903Z,13.87
2017-09-06T14:56:23.497Z,12.63
2017-09-06T14:58:51.092Z,15.33
2017-09-06T15:01:18.574Z,11.50
2017-09-06T15:03:46.133Z,12.80
2017-09-06T15:06:13.647Z,15.47
2017-09-06T15:08:41.217Z,16.60
2017-09-06T15:11:08.744Z,18.17
2017-09-06T15:13:36.238Z,15.80
2017-09-06T15:16:03.753Z,17.30
2017-09-06T15:18:31.263Z,11.07
2017-09-06T15:20:58.833Z,17.53
2017-09-06T15:23:26.385Z,17.00
2017-09-06T15:25:54.040Z,15.43
2017-09-06T15:28:21.577Z,15.93
2017-09-06T15:30:49.122Z,15.40
2017-09-06T15:33:16.664Z,16.23
2017-09-06T15:35:44.154Z,13.20
2017-09-06T15:38:11.748Z,17.37
2017-09-06T15:40:39.232Z,17.57
2017-09-06T15:43:06.737Z,16.53
2017-09-06T15:45:34.238Z,17.40
2017-09-06T15:48:01.764Z,17.80
2017-09-06T15:50:29.249Z,15.87
2017-09-06T15:52:56.897Z,13.13
2017-09-06T15:55:24.416Z,12.00
2017-09-06T15:57:52.103Z,19.60
2017-09-06T16:00:19.593Z,14.60
2017-09-06T16:02:47.188Z,20.37
2017-09-06T16:05:14.694Z,13.40
2017-09-06T16:07:42.189Z,15.43
2017-09-06T16:10:09.697Z,15.57
2017-09-06T16:12:37.182Z,16.47
2017-09-06T16:15:04.692Z,13.10
2017-09-06T16:17:32.189Z,13.60
2017-09-06T16:19:59.694Z,13.40
2017-09-06T16:22:27.181Z,11.40
2017-09-06T16:24:54.802Z,16.40
2017-09-06T16:27:22.331Z,14.20
2017-09-06T16:29:49.869Z,23.90
2017-09-06T16:32:17.409Z,15.17
2017-09-06T16:34:44.981Z,17.77
2017-09-06T16:37:12.489Z,30.87
2017-09-06T16:39:40.046Z,18.20
2017-09-06T16:42:07.566Z,18.50
2017-09-06T16:44:35.154Z,13.10
2017-09-06T16:47:02.772Z,12.67
2017-09-06T16:49:30.425Z,14.10
2017-09-06T16:51:57.933Z,16.93
2017-09-06T16:54:25.430Z,19.60
2017-09-06T16:56:52.937Z,13.23
2017-09-06T16:59:20.454Z,12.23
2017-09-06T17:01:47.994Z,14.57
2017-09-06T17:04:15.532Z,15.53
2017-09-06T17:06:43.024Z,16.50
2017-09-06T17:09:10.541Z,18.60
2017-09-06T17:11:38.029Z,19.83
2017-09-06T17:14:05.601Z,15.17
2017-09-06T17:16:33.151Z,16.13
2017-09-06T17:19:00.657Z,13.57
2017-09-06T17:21:28.232Z,15.97
2017-09-06T17:23:55.738Z,14.93
2017-09-06T17:26:23.233Z,13.23
2017-09-06T17:28:50.802Z,16.83
2017-09-06T17:31:18.349Z,14.83
2017-09-06T17:33:46.773Z,17.60
2017-09-06T17:36:14.353Z,14.27
2017-09-06T17:38:41.860Z,14.07
2017-09-06T17:41:09.445Z,13.90
2017-09-06T17:43:36.943Z,11.10
2017-09-06T17:46:04.476Z,10.80
2017-09-06T17:48:31.964Z,22.70
2017-09-06T17:50:59.469Z,24.60
2017-09-06T17:53:26.957Z,20.63
2017-09-06T17:55:54.581Z,19.63
2017-09-06T17:58:22.077Z,18.57
2017-09-06T18:00:49.628Z,21.10
2017-09-06T18:03:17.126Z,14.53
2017-09-06T18:05:44.614Z,12.03
2017-09-06T18:08:12.130Z,30.50
2017-09-06T18:10:39.620Z,20.00
2017-09-06T18:13:07.136Z,104.73
2017-09-06T18:15:34.639Z,28.20
2017-09-06T18:18:02.165Z,14.13
2017-09-06T18:20:29.653Z,50.23
2017-09-06T18:22:57.167Z,32.57
2017-09-06T18:25:24.657Z,24.87
2017-09-06T18:27:52.179Z,43.27
2017-09-06T18:30:19.695Z,21.83
2017-09-06T18:32:48.233Z,12.73
2017-09-06T18:35:15.736Z,18.30
2017-09-06T18:37:43.237Z,15.50
2017-09-06T18:40:10.900Z,22.30
2017-09-06T18:42:38.400Z,22.03
2017-09-06T18:45:05.888Z,14.83
2017-09-06T18:47:33.403Z,16.13
2017-09-06T18:50:00.890Z,19.97
2017-09-06T18:52:28.489Z,14.67
2017-09-06T18:54:56.053Z,20.67
2017-09-06T18:57:23.586Z,21.10
2017-09-06T18:59:51.094Z,19.57
2017-09-06T19:02:18.585Z,20.37
2017-09-06T19:04:46.092Z,18.93
2017-09-06T19:07:13.598Z,16.07
2017-09-06T19:09:41.120Z,18.23
2017-09-06T19:12:08.605Z,17.23
2017-09-06T19:14:36.312Z,20.30
2017-09-06T19:17:03.801Z,19.40
2017-09-06T19:19:31.375Z,18.00
2017-09-06T19:21:58.870Z,19.70
2017-09-06T19:24:26.449Z,20.03
2017-09-06T19:26:54.008Z,17.10
2017-09-06T19:29:21.500Z,26.53
2017-09-06T19:31:49.109Z,23.53
2017-09-06T19:34:16.639Z,15.47
2017-09-06T19:36:44.161Z,22.03
2017-09-06T19:39:11.750Z,15.20
2017-09-06T19:41:39.268Z,20.13
2017-09-06T19:44:06.773Z,18.60
2017-09-06T19:46:34.284Z,28.70
2017-09-06T19:49:01.770Z,20.67
2017-09-06T19:51:29.295Z,30.03
2017-09-06T19:53:56.782Z,17.43
2017-09-06T19:56:24.277Z,23.97
2017-09-06T19:58:51.780Z,18.97
2017-09-06T20:01:19.341Z,15.00
2017-09-06T20:03:46.866Z,23.87
2017-09-06T20:06:14.372Z,24.53
2017-09-06T20:08:41.951Z,28.63
2017-09-06T20:11:09.478Z,21.33
2017-09-06T20:13:37.367Z,23.20
2017-09-06T20:16:04.889Z,21.13
2017-09-06T20:18:32.415Z,16.80
2017-09-06T20:20:59.909Z,27.30
2017-09-06T20:23:27.409Z,13.73
2017-09-06T20:25:54.934Z,15.57
2017-09-06T20:28:22.658Z,25.23
2017-09-06T20:30:50.197Z,20.53
2017-09-06T20:33:17.842Z,24.73
2017-09-06T20:35:45.333Z,20.17
2017-09-06T20:38:12.908Z,23.90
2017-09-06T20:40:40.418Z,24.47
2017-09-06T20:43:07.900Z,17.73
2017-09-06T20:45:35.418Z,18.63
2017-09-06T20:48:02.965Z,20.03
2017-09-06T20:50:30.514Z,16.80
2017-09-06T20:52:58.020Z,24.60
2017-09-06T20:55:25.537Z,12.03
2017-09-06T20:57:58.965Z,16.30
2017-09-06T21:00:26.492Z,15.67
2017-09-06T21:02:54.022Z,20.63
2017-09-06T21:05:21.530Z,16.70
2017-09-06T21:07:49.013Z,16.20
2017-09-06T21:10:16.601Z,19.07
2017-09-06T21:12:44.100Z,20.97
2017-09-06T21:15:11.605Z,11.60
2017-09-06T21:17:39.098Z,12.90
2017-09-06T21:20:06.664Z,10.83
2017-09-06T21:22:34.144Z,18.70
2017-09-06T21:25:01.681Z,22.80
2017-09-06T21:27:29.234Z,15.17
2017-09-06T21:29:56.748Z,11.90
2017-09-06T21:32:25.454Z,17.27
2017-09-06T21:34:53.023Z,12.77
2017-09-06T21:37:20.608Z,18.80
2017-09-06T21:39:48.101Z,17.10
2017-09-06T21:42:15.597Z,12.63
2017-09-06T21:44:43.097Z,13.33
2017-09-06T21:47:10.628Z,14.70
2017-09-06T21:49:38.121Z,12.93
2017-09-06T21:52:05.628Z,16.17
2017-09-06T21:54:33.121Z,14.83
2017-09-06T21:57:00.637Z,17.17
2017-09-06T21:59:28.208Z,16.37
2017-09-06T22:01:55.741Z,19.80
2017-09-06T22:04:23.258Z,17.50
2017-09-06T22:06:50.758Z,24.20
2017-09-06T22:09:18.278Z,16.07
2017-09-06T22:11:45.771Z,21.77
2017-09-06T22:14:13.313Z,22.73
2017-09-06T22:16:40.801Z,16.20
2017-09-06T22:19:08.386Z,15.07
2017-09-06T22:21:35.886Z,21.57
2017-09-06T22:24:03.412Z,20.53
2017-09-06T22:26:30.896Z,21.50
2017-09-06T22:28:58.390Z,19.00
2017-09-06T22:31:25.896Z,27.70
2017-09-06T22:33:53.404Z,20.33
2017-09-06T22:36:20.913Z,16.33
2017-09-06T22:38:48.409Z,26.43
2017-09-06T22:41:15.912Z,22.07
2017-09-06T22:43:43.405Z,22.67
2017-09-06T22:46:10.914Z,22.67
2017-09-06T22:48:38.401Z,21.93
2017-09-06T22:51:05.905Z,22.10
2017-09-06T22:53:33.410Z,22.70
2017-09-06T22:56:00.917Z,24.80
2017-09-06T22:58:28.409Z,21.73
2017-09-06T23:00:55.921Z,23.23
2017-09-06T23:03:23.408Z,25.50
2017-09-06T23:05:50.924Z,23.80
2017-09-06T23:08:18.416Z,22.07
2017-09-06T23:10:45.902Z,23.47
2017-09-06T23:13:13.405Z,17.87
2017-09-06T23:15:40.897Z,20.17
2017-09-06T23:18:08.481Z,16.50
2017-09-06T23:20:36.130Z,23.43
2017-09-06T23:23:03.642Z,22.83
2017-09-06T23:25:31.124Z,24.87
2017-09-06T23:27:58.624Z,25.20
2017-09-06T23:30:26.226Z,22.90
2017-09-06T23:32:53.730Z,19.77
2017-09-06T23:35:21.220Z,26.10
2017-09-06T23:37:48.734Z,21.00
2017-09-06T23:40:16.233Z,19.43
2017-09-06T23:42:43.716Z,24.77
2017-09-06T23:45:11.220Z,23.77
2017-09-06T23:47:38.706Z,23.10
2017-09-06T23:50:06.208Z,20.67
2017-09-06T23:52:33.688Z,28.60
2017-09-06T23:55:01.189Z,19.60
2017-09-06T23:57:28.679Z,19.67
2017-09-06T23:59:56.177Z,21.10
